Time;durP1;ratioP1;P1;durP2;ratioP2;P2;SDS_P1;SDS_P2;PMS_P1;PMS_P2;Temp;Humidity;BMP_temperature;BMP_pressure;BME280_temperature;BME280_humidity;BME280_pressure;Samples;Min_cycle;Max_cycle;Signal;HPM_P1;HPM_P2
2021/08/24 00:02:21;;;;;;;2.28;1.90;;;21.10;71.00;;;;;;10333216;28;20030;-52
2021/08/24 00:07:22;;;;;;;2.53;1.73;;;21.10;71.00;;;;;;10332427;28;20033;-51
2021/08/24 00:12:23;;;;;;;2.97;1.88;;;21.00;70.90;;;;;;10332279;28;20120;-52
2021/08/24 00:17:23;;;;;;;3.25;1.90;;;21.00;70.90;;;;;;10333895;28;20494;-51
2021/08/24 00:22:24;;;;;;;2.30;1.48;;;21.00;70.80;;;;;;10332777;28;20113;-51
2021/08/24 00:27:25;;;;;;;3.70;1.48;;;21.00;70.70;;;;;;10331186;28;20108;-52
2021/08/24 00:32:28;;;;;;;2.10;1.48;;;21.00;70.70;;;;;;10345198;28;20065;-51
2021/08/24 00:37:28;;;;;;;5.32;1.88;;;21.00;70.70;;;;;;10344526;28;20030;-52
2021/08/24 00:42:29;;;;;;;2.72;1.75;;;21.00;70.60;;;;;;10331572;28;20433;-51
2021/08/24 00:47:30;;;;;;;2.72;1.80;;;21.00;70.60;;;;;;10331715;28;20069;-50
2021/08/24 00:52:31;;;;;;;2.00;1.63;;;21.00;70.50;;;;;;10331628;28;20372;-52
2021/08/24 00:57:32;;;;;;;2.67;1.77;;;21.00;70.50;;;;;;10331540;28;20031;-52
2021/08/24 01:02:32;;;;;;;2.95;1.50;;;21.00;70.40;;;;;;10331489;28;20058;-51
2021/08/24 01:07:57;;;;;;;3.17;1.67;;;21.00;70.40;;;;;;10335388;28;20061;-50
2021/08/24 01:13:25;;;;;;;2.42;1.50;;;21.00;70.30;;;;;;10337945;28;20109;-52
2021/08/24 01:19:08;;;;;;;2.95;1.92;;;21.00;70.30;;;;;;10341780;28;20030;-49
2021/08/24 01:24:25;;;;;;;2.63;1.50;;;21.00;70.10;;;;;;10306675;28;20042;-52
2021/08/24 01:29:47;;;;;;;3.95;2.38;;;21.00;70.10;;;;;;10337448;28;20122;-52
2021/08/24 01:35:43;;;;;;;2.47;1.88;;;20.90;70.10;;;;;;10336935;28;20030;-50
2021/08/24 01:41:02;;;;;;;3.63;1.90;;;21.00;70.00;;;;;;10371954;28;20518;-50
2021/08/24 01:46:31;;;;;;;3.80;1.90;;;20.90;70.00;;;;;;10378369;28;20037;-51
2021/08/24 01:51:44;;;;;;;2.67;1.70;;;20.90;70.50;;;;;;10377151;28;20022;-49
2021/08/24 01:56:46;;;;;;;1.98;1.52;;;20.90;69.70;;;;;;10376766;28;20084;-49
2021/08/24 02:02:01;;;;;;;2.00;1.50;;;20.90;69.80;;;;;;10376573;28;20026;-49
2021/08/24 02:07:06;;;;;;;2.92;2.10;;;20.90;69.70;;;;;;10376353;28;20038;-51
2021/08/24 02:12:09;;;;;;;3.05;1.80;;;20.90;69.80;;;;;;10376289;28;20387;-51
2021/08/24 02:17:14;;;;;;;2.97;1.67;;;20.90;69.70;;;;;;10372452;28;20047;-53
2021/08/24 02:22:32;;;;;;;1.88;1.63;;;20.90;69.60;;;;;;10335494;28;20034;-49
2021/08/24 02:27:39;;;;;;;2.95;1.88;;;20.90;69.70;;;;;;10335421;28;20026;-51
2021/08/24 02:32:44;;;;;;;2.72;1.75;;;20.90;69.70;;;;;;10334904;28;20031;-49
2021/08/24 02:38:07;;;;;;;3.97;2.13;;;20.90;70.30;;;;;;10334662;28;20073;-51
2021/08/24 02:43:42;;;;;;;2.42;1.85;;;20.90;69.60;;;;;;10335320;28;20575;-49
2021/08/24 02:48:49;;;;;;;3.10;1.95;;;20.90;69.40;;;;;;10332972;28;20372;-51
2021/08/24 02:54:12;;;;;;;2.38;1.92;;;20.90;69.50;;;;;;10333968;28;20042;-52
2021/08/24 02:59:12;;;;;;;2.80;2.08;;;20.90;69.50;;;;;;10334923;28;20035;-50
2021/08/24 03:04:14;;;;;;;3.20;1.88;;;20.90;69.50;;;;;;10334645;28;20486;-51
2021/08/24 03:09:17;;;;;;;3.38;1.90;;;20.80;69.40;;;;;;10334502;28;20026;-52
2021/08/24 03:14:32;;;;;;;2.72;2.15;;;20.80;69.50;;;;;;10339547;28;20092;-50
2021/08/24 03:19:36;;;;;;;3.15;2.10;;;20.80;69.30;;;;;;10351018;28;20030;-51
2021/08/24 03:24:37;;;;;;;3.00;1.90;;;20.80;69.30;;;;;;10334025;28;20050;-51
2021/08/24 03:29:38;;;;;;;2.75;2.08;;;20.80;69.20;;;;;;10332222;28;20034;-52
2021/08/24 03:34:39;;;;;;;2.53;1.88;;;20.80;69.20;;;;;;10333516;28;20374;-51
2021/08/24 03:39:39;;;;;;;3.05;1.90;;;20.80;69.20;;;;;;10333428;28;20108;-51
2021/08/24 03:44:43;;;;;;;3.08;2.17;;;20.80;69.10;;;;;;10333580;28;20130;-53
2021/08/24 03:49:43;;;;;;;3.40;2.08;;;20.80;69.20;;;;;;10360791;28;20538;-51
2021/08/24 03:54:44;;;;;;;2.50;1.95;;;20.70;69.10;;;;;;10373299;28;20164;-52
2021/08/24 03:59:45;;;;;;;3.33;2.08;;;20.80;69.20;;;;;;10358982;28;20367;-52
2021/08/24 04:04:45;;;;;;;4.18;2.40;;;20.80;69.00;;;;;;10373772;28;20482;-51
2021/08/24 04:09:46;;;;;;;3.55;2.22;;;20.70;68.90;;;;;;10372999;28;20096;-52
2021/08/24 04:14:47;;;;;;;3.40;2.28;;;20.70;68.90;;;;;;10371912;28;20030;-49
2021/08/24 04:19:47;;;;;;;4.53;2.13;;;20.70;68.90;;;;;;10348398;28;20031;-52
2021/08/24 04:24:48;;;;;;;3.25;2.10;;;20.70;68.90;;;;;;10331972;28;20044;-48
2021/08/24 04:29:49;;;;;;;3.55;2.00;;;20.70;69.00;;;;;;10331304;28;20213;-53
2021/08/24 04:34:50;;;;;;;2.97;1.95;;;20.70;68.90;;;;;;10327830;28;20031;-51
2021/08/24 04:39:51;;;;;;;2.67;1.80;;;20.70;68.90;;;;;;10332377;28;20069;-52
2021/08/24 04:44:51;;;;;;;3.63;2.30;;;20.70;69.00;;;;;;10340416;28;20070;-51
2021/08/24 04:49:52;;;;;;;3.42;2.00;;;20.70;68.90;;;;;;10340908;28;20502;-51
2021/08/24 04:54:52;;;;;;;2.80;2.20;;;20.70;68.90;;;;;;10340220;28;20390;-53
2021/08/24 04:59:53;;;;;;;2.60;1.92;;;20.70;68.90;;;;;;10339999;28;20050;-51
2021/08/24 05:04:54;;;;;;;2.90;2.00;;;20.70;68.90;;;;;;10339818;28;20509;-52
2021/08/24 05:09:55;;;;;;;4.90;2.50;;;20.70;68.90;;;;;;10339682;28;20034;-51
2021/08/24 05:14:56;;;;;;;4.57;2.17;;;20.70;68.90;;;;;;10338177;28;20038;-52
2021/08/24 05:19:57;;;;;;;3.50;2.33;;;20.70;69.00;;;;;;10342206;28;20029;-51
2021/08/24 05:24:57;;;;;;;3.17;2.10;;;20.60;68.90;;;;;;10339118;28;20045;-50
2021/08/24 05:30:05;;;;;;;2.47;2.10;;;20.60;69.00;;;;;;10338731;28;20038;-51
2021/08/24 05:35:07;;;;;;;3.05;2.35;;;20.70;68.90;;;;;;10366696;28;20164;-52
2021/08/24 05:40:09;;;;;;;3.67;2.45;;;20.60;68.90;;;;;;10379723;28;20041;-48
2021/08/24 05:45:11;;;;;;;3.17;2.15;;;20.70;69.00;;;;;;10378797;28;20498;-49
2021/08/24 05:50:12;;;;;;;3.35;2.15;;;20.60;69.00;;;;;;10379044;28;20123;-50
2021/08/24 05:55:13;;;;;;;3.08;2.40;;;20.60;69.20;;;;;;10378295;28;20072;-51
2021/08/24 06:00:14;;;;;;;2.88;2.08;;;20.60;69.20;;;;;;10378122;28;20060;-48
2021/08/24 06:05:15;;;;;;;3.05;2.40;;;20.60;69.30;;;;;;10378178;28;20021;-50
2021/08/24 06:10:15;;;;;;;3.30;2.47;;;20.60;69.40;;;;;;10377862;28;20033;-51
2021/08/24 06:15:17;;;;;;;3.50;2.40;;;20.60;69.50;;;;;;10377682;28;20033;-51
2021/08/24 06:20:19;;;;;;;3.03;2.35;;;20.60;69.50;;;;;;10347815;28;20046;-51
2021/08/24 06:25:22;;;;;;;3.70;2.00;;;20.60;69.50;;;;;;10336545;28;20117;-48
2021/08/24 06:30:22;;;;;;;3.85;2.70;;;20.60;69.60;;;;;;10336757;28;20058;-52
2021/08/24 06:35:23;;;;;;;3.08;1.95;;;20.60;69.70;;;;;;10336315;28;20062;-50
2021/08/24 06:40:24;;;;;;;3.22;2.35;;;20.60;69.80;;;;;;10335359;28;20035;-52
2021/08/24 06:45:30;;;;;;;3.47;2.25;;;20.60;69.90;;;;;;10336066;28;20077;-52
2021/08/24 06:50:31;;;;;;;4.38;2.60;;;20.60;70.00;;;;;;10335875;28;20437;-52
2021/08/24 06:55:32;;;;;;;3.60;2.35;;;20.60;70.20;;;;;;10335071;28;20062;-50
2021/08/24 07:00:33;;;;;;;3.60;2.33;;;20.60;70.20;;;;;;10335553;28;20436;-49
2021/08/24 07:05:34;;;;;;;3.15;2.10;;;20.60;70.30;;;;;;10334937;28;20386;-49
2021/08/24 07:10:36;;;;;;;3.72;2.28;;;20.60;70.50;;;;;;10334116;28;20105;-49
2021/08/24 07:15:38;;;;;;;3.08;2.00;;;20.60;70.60;;;;;;10334577;28;20089;-50
2021/08/24 07:20:39;;;;;;;3.10;2.22;;;20.60;70.60;;;;;;10336626;28;20026;-52
2021/08/24 07:25:40;;;;;;;2.95;2.00;;;20.60;70.60;;;;;;10334155;28;20114;-51
2021/08/24 07:30:52;;;;;;;3.25;2.28;;;20.60;70.70;;;;;;10333058;28;20121;-50
2021/08/24 07:35:53;;;;;;;3.53;2.33;;;20.60;70.70;;;;;;10334104;28;20121;-49
2021/08/24 07:40:54;;;;;;;2.65;1.90;;;20.60;70.60;;;;;;10332540;28;20121;-49
2021/08/24 07:45:54;;;;;;;2.00;1.58;;;20.60;70.50;;;;;;10334273;28;20390;-52
2021/08/24 07:50:55;;;;;;;4.32;2.25;;;20.60;70.10;;;;;;10333741;28;20076;-50
2021/08/24 07:55:57;;;;;;;3.00;2.45;;;20.60;70.10;;;;;;10333702;28;20034;-52
2021/08/24 08:00:58;;;;;;;3.72;2.30;;;20.60;70.30;;;;;;10345701;28;20034;-51
2021/08/24 08:05:59;;;;;;;3.08;1.80;;;20.60;70.30;;;;;;10359384;28;20121;-52
2021/08/24 08:11:00;;;;;;;2.75;2.20;;;20.60;70.40;;;;;;10373381;28;20455;-52
2021/08/24 08:16:01;;;;;;;2.20;1.90;;;20.70;70.50;;;;;;10373393;28;20121;-50
2021/08/24 08:21:02;;;;;;;5.70;2.72;;;20.70;70.50;;;;;;10338855;28;20105;-49
2021/08/24 08:26:03;;;;;;;2.63;1.90;;;20.70;70.40;;;;;;10332550;28;20510;-52
2021/08/24 08:31:04;;;;;;;3.28;2.28;;;20.70;70.40;;;;;;10332353;28;20058;-49
2021/08/24 08:36:05;;;;;;;2.40;1.83;;;20.70;70.50;;;;;;10331506;28;20054;-51
2021/08/24 08:41:38;;;;;;;3.25;1.98;;;20.70;70.50;;;;;;10332138;28;20378;-52
2021/08/24 08:47:21;;;;;;;3.80;2.67;;;20.80;70.50;;;;;;10361174;28;20034;-51
2021/08/24 08:52:37;;;;;;;2.80;1.90;;;20.80;70.50;;;;;;10372816;28;20394;-52
2021/08/24 08:57:48;;;;;;;2.40;1.92;;;20.80;70.50;;;;;;10371662;28;20085;-52
2021/08/24 09:03:05;;;;;;;3.67;2.13;;;20.80;70.40;;;;;;10372893;28;20021;-51
2021/08/24 09:08:06;;;;;;;3.58;2.47;;;20.90;70.50;;;;;;10371447;28;20030;-49
2021/08/24 09:13:29;;;;;;;2.22;1.70;;;20.90;70.40;;;;;;10371102;28;20037;-52
2021/08/24 09:18:52;;;;;;;2.90;1.90;;;20.90;70.40;;;;;;10357395;28;20069;-49
2021/08/24 09:23:55;;;;;;;3.45;2.13;;;20.90;70.40;;;;;;10356664;28;20028;-49
2021/08/24 09:28:57;;;;;;;3.75;1.88;;;20.90;70.40;;;;;;10365298;28;20034;-50
2021/08/24 09:33:57;;;;;;;4.70;2.63;;;21.00;70.30;;;;;;10379060;28;20042;-50
2021/08/24 09:39:00;;;;;;;3.05;2.38;;;20.90;70.30;;;;;;10378982;28;20057;-52
2021/08/24 09:44:27;;;;;;;2.78;1.83;;;21.00;70.40;;;;;;10371065;28;20050;-47
2021/08/24 09:49:32;;;;;;;4.10;2.28;;;21.00;70.30;;;;;;10338193;28;20042;-51
2021/08/24 09:54:41;;;;;;;3.28;1.75;;;21.00;70.40;;;;;;10364059;28;20050;-50
2021/08/24 10:00:03;;;;;;;2.88;2.10;;;21.00;70.30;;;;;;10378390;28;20026;-50
2021/08/24 10:05:27;;;;;;;2.83;2.42;;;21.00;70.40;;;;;;10377275;28;20384;-50
2021/08/24 10:10:36;;;;;;;2.30;1.63;;;21.00;70.20;;;;;;10371490;28;20111;-51
2021/08/24 10:15:39;;;;;;;2.53;1.98;;;21.00;70.20;;;;;;10378049;28;20099;-50
2021/08/24 10:21:02;;;;;;;2.35;2.00;;;21.10;70.30;;;;;;10346094;28;20374;-51
2021/08/24 10:26:22;;;;;;;3.45;1.90;;;21.10;70.30;;;;;;10336940;28;20049;-52
2021/08/24 10:31:51;;;;;;;3.58;2.30;;;21.10;70.10;;;;;;10335841;28;20030;-51
2021/08/24 10:37:04;;;;;;;2.92;2.03;;;21.10;70.30;;;;;;10363998;28;20034;-52
2021/08/24 10:42:21;;;;;;;2.85;1.88;;;21.10;70.30;;;;;;10344380;28;20054;-50
2021/08/24 10:47:45;;;;;;;2.83;1.90;;;21.10;70.20;;;;;;10335902;28;20034;-51
2021/08/24 10:53:28;;;;;;;2.67;1.77;;;21.20;70.30;;;;;;10336080;28;20077;-51
2021/08/24 10:58:35;;;;;;;4.03;2.15;;;21.20;70.10;;;;;;10359748;28;20052;-51
2021/08/24 11:04:06;;;;;;;3.42;2.30;;;21.20;70.00;;;;;;10376169;28;20144;-50
2021/08/24 11:09:33;;;;;;;3.05;1.80;;;21.30;70.20;;;;;;10375992;28;20041;-49
2021/08/24 11:15:08;;;;;;;2.83;2.05;;;21.30;70.10;;;;;;10375394;28;20065;-52
2021/08/24 11:20:41;;;;;;;2.45;1.92;;;21.30;70.00;;;;;;10347034;28;20030;-49
2021/08/24 11:26:03;;;;;;;3.45;2.33;;;21.30;69.80;;;;;;10351299;28;20038;-52
2021/08/24 11:31:46;;;;;;;2.97;1.98;;;21.30;69.90;;;;;;10374132;28;20042;-51
2021/08/24 11:37:20;;;;;;;2.03;1.83;;;21.40;70.00;;;;;;10373721;28;20073;-52
2021/08/24 11:42:29;;;;;;;2.20;1.70;;;21.40;69.80;;;;;;10353656;28;20080;-48
2021/08/24 11:47:39;;;;;;;2.83;2.10;;;21.40;69.80;;;;;;10373020;28;20041;-47
2021/08/24 11:52:48;;;;;;;2.45;2.15;;;21.40;69.60;;;;;;10374161;28;20025;-52
2021/08/24 11:58:43;;;;;;;2.00;1.80;;;21.50;69.80;;;;;;10373049;28;20037;-51
2021/08/24 12:03:52;;;;;;;2.25;1.80;;;21.50;69.60;;;;;;10374405;28;20061;-52
2021/08/24 12:08:57;;;;;;;2.75;2.22;;;21.50;69.50;;;;;;10372164;28;20033;-50
2021/08/24 12:14:28;;;;;;;2.83;2.17;;;21.40;69.50;;;;;;10372443;28;20037;-51
2021/08/24 12:19:31;;;;;;;2.60;2.00;;;21.50;69.60;;;;;;10350904;28;20149;-52
2021/08/24 12:24:49;;;;;;;2.17;1.85;;;21.50;69.70;;;;;;10332657;28;20026;-52
2021/08/24 12:29:51;;;;;;;3.90;2.13;;;21.50;69.70;;;;;;10332651;28;20034;-53
2021/08/24 12:35:41;;;;;;;2.72;2.00;;;21.50;69.60;;;;;;10357632;28;20027;-52
2021/08/24 12:40:55;;;;;;;;;;;21.50;69.60;;;;;;10354300;28;20065;-52
2021/08/24 12:46:17;;;;;;;2.22;2.03;;;21.50;69.50;;;;;;10373068;28;19951;-50
2021/08/24 12:51:30;;;;;;;2.78;1.83;;;21.50;69.40;;;;;;10372615;28;20030;-51
2021/08/24 12:57:05;;;;;;;4.10;2.47;;;21.50;69.60;;;;;;10355394;28;20478;-52
2021/08/24 13:02:38;;;;;;;1.95;1.75;;;21.50;69.40;;;;;;10370746;28;20093;-51
2021/08/24 13:07:57;;;;;;;3.30;2.10;;;21.50;69.50;;;;;;10380706;28;20036;-52
2021/08/24 13:12:58;;;;;;;2.95;2.22;;;21.50;69.40;;;;;;10380132;28;20030;-51
2021/08/24 13:18:10;;;;;;;2.25;1.52;;;21.50;69.40;;;;;;10369201;28;20026;-52
2021/08/24 13:23:33;;;;;;;3.42;2.80;;;21.50;69.60;;;;;;10339497;28;20041;-48
2021/08/24 13:28:36;;;;;;;2.75;2.30;;;21.50;69.50;;;;;;10365377;28;20030;-53
2021/08/24 13:33:50;;;;;;;3.42;3.03;;;21.50;69.50;;;;;;10348740;28;20041;-51
2021/08/24 13:38:57;;;;;;;2.78;1.85;;;21.50;69.50;;;;;;10378663;28;20030;-51
2021/08/24 13:44:00;;;;;;;2.55;2.20;;;21.50;69.40;;;;;;10378877;28;20068;-51
2021/08/24 13:49:05;;;;;;;3.30;2.30;;;21.50;69.40;;;;;;10377651;28;20037;-50
2021/08/24 13:54:05;;;;;;;1.92;1.67;;;21.50;69.40;;;;;;10377442;28;20030;-52
2021/08/24 13:59:08;;;;;;;2.72;1.95;;;21.50;69.20;;;;;;10377248;28;20018;-52
2021/08/24 14:04:16;;;;;;;2.00;1.70;;;21.50;69.20;;;;;;10378433;28;20068;-51
2021/08/24 14:09:26;;;;;;;3.30;2.37;;;21.50;69.20;;;;;;10377115;28;20245;-52
2021/08/24 14:14:48;;;;;;;3.30;1.90;;;21.50;69.10;;;;;;10376477;28;20037;-52
2021/08/24 14:19:49;;;;;;;3.15;2.25;;;21.50;69.00;;;;;;10353331;28;20330;-51
2021/08/24 14:24:52;;;;;;;2.55;1.80;;;21.50;68.70;;;;;;10335912;28;20037;-52
2021/08/24 14:29:53;;;;;;;2.88;1.83;;;21.50;69.00;;;;;;10335686;28;20498;-51
2021/08/24 14:34:54;;;;;;;3.15;2.08;;;21.50;68.90;;;;;;10335259;28;20193;-50
2021/08/24 14:40:03;;;;;;;2.70;1.92;;;21.50;68.80;;;;;;10336365;28;20361;-51
2021/08/24 14:45:27;;;;;;;2.40;1.88;;;21.50;68.90;;;;;;10336069;28;20380;-52
2021/08/24 14:50:41;;;;;;;2.63;1.55;;;21.50;68.80;;;;;;10336077;28;20034;-50
2021/08/24 14:55:41;;;;;;;2.92;2.15;;;21.50;68.90;;;;;;10335759;28;20035;-50
2021/08/24 15:00:45;;;;;;;3.92;2.17;;;21.50;69.00;;;;;;10334596;28;20049;-50
2021/08/24 15:05:50;;;;;;;4.57;3.15;;;21.50;68.90;;;;;;10335808;28;20035;-48
2021/08/24 15:11:21;;;;;;;2.25;1.77;;;21.40;68.50;;;;;;10363179;28;20025;-51
2021/08/24 15:16:33;;;;;;;2.72;2.10;;;21.40;68.40;;;;;;10375037;28;20049;-50
2021/08/24 15:21:46;;;;;;;2.78;2.10;;;21.40;68.70;;;;;;10335823;28;20368;-51
2021/08/24 15:26:55;;;;;;;2.90;2.10;;;21.40;68.40;;;;;;10332841;28;20035;-50
2021/08/24 15:32:04;;;;;;;3.28;2.25;;;21.40;68.60;;;;;;10346829;28;20033;-49
2021/08/24 15:37:08;;;;;;;4.28;1.98;;;21.40;68.50;;;;;;10334031;28;20023;-52
2021/08/24 15:42:29;;;;;;;2.85;2.15;;;21.40;68.60;;;;;;10332936;28;20046;-50
2021/08/24 15:47:32;;;;;;;2.70;2.42;;;21.40;68.50;;;;;;10333902;28;20040;-51
2021/08/24 15:52:35;;;;;;;2.60;2.08;;;21.40;68.20;;;;;;10332441;28;20117;-50
2021/08/24 15:57:36;;;;;;;2.17;1.88;;;21.40;68.30;;;;;;10333220;28;20478;-52
2021/08/24 16:02:37;;;;;;;3.22;2.08;;;21.40;68.40;;;;;;10333628;28;20034;-52
2021/08/24 16:07:37;;;;;;;2.08;1.70;;;21.40;68.00;;;;;;10333599;28;20542;-52
2021/08/24 16:12:38;;;;;;;3.78;2.13;;;21.40;68.20;;;;;;10333298;28;20053;-48
2021/08/24 16:17:39;;;;;;;2.72;2.15;;;21.40;68.10;;;;;;10335633;28;20047;-51
2021/08/24 16:22:49;;;;;;;2.72;2.10;;;21.40;67.60;;;;;;10333000;28;20418;-50
2021/08/24 16:27:51;;;;;;;3.10;2.08;;;21.30;68.00;;;;;;10333137;28;20049;-51
2021/08/24 16:32:53;;;;;;;3.33;2.22;;;21.40;68.00;;;;;;10332613;28;20038;-48
2021/08/24 16:37:56;;;;;;;4.18;2.60;;;21.40;68.20;;;;;;10334394;28;20022;-50
2021/08/24 16:42:57;;;;;;;3.42;2.10;;;21.40;68.10;;;;;;10340737;28;20124;-52
2021/08/24 16:47:59;;;;;;;2.90;2.10;;;21.40;68.10;;;;;;10340475;28;20069;-52
2021/08/24 16:52:59;;;;;;;2.38;1.90;;;21.40;68.50;;;;;;10340792;28;20023;-50
2021/08/24 16:58:00;;;;;;;2.83;2.00;;;21.40;68.10;;;;;;10340207;28;20434;-49
2021/08/24 17:03:01;;;;;;;2.92;1.90;;;21.30;68.40;;;;;;10339976;28;20181;-50
2021/08/24 17:08:02;;;;;;;2.53;2.00;;;21.30;68.30;;;;;;10340001;28;20062;-52
2021/08/24 17:13:04;;;;;;;2.70;2.13;;;21.40;68.40;;;;;;10339660;28;20043;-50
2021/08/24 17:18:05;;;;;;;3.10;2.10;;;21.40;68.40;;;;;;10341844;28;20022;-52
2021/08/24 17:23:07;;;;;;;2.97;2.15;;;21.40;68.30;;;;;;10339384;28;20037;-49
2021/08/24 17:28:16;;;;;;;3.28;2.13;;;21.40;68.30;;;;;;10339209;28;20030;-50
2021/08/24 17:33:19;;;;;;;2.80;2.08;;;21.30;68.40;;;;;;10339626;28;20458;-50
2021/08/24 17:38:19;;;;;;;3.25;2.05;;;21.40;68.60;;;;;;10366240;28;20037;-49
2021/08/24 17:43:20;;;;;;;3.10;2.22;;;21.40;68.60;;;;;;10379344;28;20045;-51
2021/08/24 17:48:28;;;;;;;3.28;2.25;;;21.40;68.60;;;;;;10378414;28;20038;-52
2021/08/24 17:53:36;;;;;;;3.05;2.15;;;21.30;68.50;;;;;;10378985;28;20104;-51
2021/08/24 17:58:37;;;;;;;2.90;1.80;;;21.40;68.50;;;;;;10378674;28;20037;-51
2021/08/24 18:03:39;;;;;;;3.17;2.35;;;21.40;68.40;;;;;;10378416;28;20030;-50
2021/08/24 18:08:39;;;;;;;3.58;2.28;;;21.40;68.60;;;;;;10376980;28;20030;-51
2021/08/24 18:13:40;;;;;;;2.85;2.08;;;21.40;68.50;;;;;;10378031;28;20065;-52
2021/08/24 18:18:41;;;;;;;3.30;2.20;;;21.30;68.50;;;;;;10363747;28;20050;-52
2021/08/24 18:23:43;;;;;;;2.63;2.15;;;21.40;68.60;;;;;;10337554;28;20072;-53
2021/08/24 18:28:43;;;;;;;3.25;2.33;;;21.40;68.60;;;;;;10337080;28;20023;-52
2021/08/24 18:33:44;;;;;;;2.97;2.13;;;21.40;68.40;;;;;;10336546;28;20019;-51
2021/08/24 18:38:45;;;;;;;3.63;2.42;;;21.30;68.30;;;;;;10336427;28;20057;-48
2021/08/24 18:43:46;;;;;;;3.17;2.70;;;21.40;68.20;;;;;;10336149;28;20506;-51
2021/08/24 18:48:47;;;;;;;3.53;2.53;;;21.40;68.30;;;;;;10336319;28;20031;-51
2021/08/24 18:53:48;;;;;;;3.58;2.28;;;21.40;68.30;;;;;;10335884;28;20041;-50
2021/08/24 18:58:48;;;;;;;2.92;2.38;;;21.30;68.30;;;;;;10334941;28;20049;-51
2021/08/24 19:03:51;;;;;;;3.63;2.45;;;21.30;68.30;;;;;;10335536;28;20037;-47
2021/08/24 19:08:52;;;;;;;3.38;2.20;;;21.30;68.30;;;;;;10335412;28;20022;-52
2021/08/24 19:13:57;;;;;;;3.33;2.38;;;21.30;68.40;;;;;;10335271;28;20022;-50
2021/08/24 19:18:58;;;;;;;4.60;3.05;;;21.30;68.40;;;;;;10344657;28;20030;-50
2021/08/24 19:23:58;;;;;;;4.10;2.72;;;21.30;68.40;;;;;;10334301;28;20065;-52
2021/08/24 19:28:59;;;;;;;3.13;2.47;;;21.30;68.40;;;;;;10334101;28;20053;-50
2021/08/24 19:34:00;;;;;;;4.00;2.72;;;21.30;68.50;;;;;;10333049;28;20076;-51
2021/08/24 19:39:02;;;;;;;3.63;2.45;;;21.30;68.60;;;;;;10333667;28;20556;-49
2021/08/24 19:44:03;;;;;;;3.55;2.40;;;21.30;68.60;;;;;;10333512;28;20057;-50
2021/08/24 19:49:04;;;;;;;4.47;2.72;;;21.30;68.70;;;;;;10333302;28;20034;-52
2021/08/24 19:54:05;;;;;;;4.20;2.85;;;21.30;68.90;;;;;;10358256;28;20069;-52
2021/08/24 19:59:05;;;;;;;3.67;2.30;;;21.30;68.90;;;;;;10333022;28;20030;-49
2021/08/24 20:04:06;;;;;;;3.90;2.70;;;21.30;68.80;;;;;;10332771;28;20034;-49
2021/08/24 20:09:07;;;;;;;3.45;2.40;;;21.30;68.70;;;;;;10332843;28;20034;-50
2021/08/24 20:14:11;;;;;;;4.63;2.85;;;21.30;68.70;;;;;;10332306;28;20609;-49
2021/08/24 20:19:12;;;;;;;3.55;2.28;;;21.30;68.80;;;;;;10334580;28;20049;-49
2021/08/24 20:24:26;;;;;;;3.22;2.25;;;21.30;68.80;;;;;;10332267;28;20034;-50
2021/08/24 20:29:26;;;;;;;3.83;2.65;;;21.30;68.50;;;;;;10332280;28;20081;-52
2021/08/24 20:34:28;;;;;;;4.43;2.78;;;21.20;68.30;;;;;;10332103;28;20044;-52
2021/08/24 20:39:29;;;;;;;3.63;2.58;;;21.20;68.30;;;;;;10331954;28;20076;-48
2021/08/24 20:44:30;;;;;;;3.92;2.90;;;21.30;68.30;;;;;;10331763;28;20507;-52
2021/08/24 20:49:30;;;;;;;3.35;2.63;;;21.20;68.20;;;;;;10331778;28;20030;-48
2021/08/24 20:54:31;;;;;;;3.15;2.53;;;21.20;68.20;;;;;;10332120;28;20501;-48
2021/08/24 20:59:31;;;;;;;3.33;2.42;;;21.20;68.10;;;;;;10330478;28;20035;-48
2021/08/24 21:04:32;;;;;;;3.63;2.60;;;21.20;68.10;;;;;;10331582;28;20089;-51
2021/08/24 21:09:33;;;;;;;5.53;2.80;;;21.20;68.00;;;;;;10331752;28;20023;-52
2021/08/24 21:14:34;;;;;;;3.38;2.28;;;21.20;68.10;;;;;;10331906;28;20105;-52
2021/08/24 21:19:34;;;;;;;4.20;3.00;;;21.20;68.10;;;;;;10334335;28;20469;-52
2021/08/24 21:24:36;;;;;;;3.83;2.45;;;21.20;68.20;;;;;;10335505;28;20061;-51
2021/08/24 21:29:37;;;;;;;3.85;2.90;;;21.20;68.20;;;;;;10337585;28;20042;-49
2021/08/24 21:34:38;;;;;;;3.30;2.13;;;21.20;68.30;;;;;;10338586;28;20120;-51
2021/08/24 21:39:39;;;;;;;4.07;2.80;;;21.20;68.30;;;;;;10337205;28;20034;-48
2021/08/24 21:44:40;;;;;;;4.35;3.03;;;21.20;68.30;;;;;;10362908;28;20082;-50
2021/08/24 21:49:40;;;;;;;5.22;3.00;;;21.20;68.20;;;;;;10337992;28;20109;-48
2021/08/24 21:54:41;;;;;;;5.05;2.35;;;21.20;68.10;;;;;;10337760;28;20054;-50
2021/08/24 21:59:42;;;;;;;4.40;2.58;;;21.10;67.90;;;;;;10337573;28;20037;-49
2021/08/24 22:04:42;;;;;;;3.80;2.03;;;21.20;67.90;;;;;;10337739;28;20030;-51
2021/08/24 22:09:43;;;;;;;3.53;2.60;;;21.20;67.90;;;;;;10337342;28;20471;-51
2021/08/24 22:14:44;;;;;;;3.10;2.20;;;21.10;67.90;;;;;;10337512;28;20106;-52
2021/08/24 22:19:44;;;;;;;3.80;2.92;;;21.10;67.80;;;;;;10348644;28;20117;-49
2021/08/24 22:24:45;;;;;;;3.95;2.58;;;21.10;67.80;;;;;;10348647;28;20117;-49
2021/08/24 22:29:46;;;;;;;4.07;2.85;;;21.10;67.80;;;;;;10336919;28;20391;-51
2021/08/24 22:34:46;;;;;;;4.22;2.50;;;21.10;67.70;;;;;;10336168;28;20113;-48
2021/08/24 22:39:47;;;;;;;3.80;2.65;;;21.10;67.70;;;;;;10336092;28;20030;-49
2021/08/24 22:44:48;;;;;;;3.80;2.60;;;21.10;67.70;;;;;;10363302;28;20054;-49
2021/08/24 22:49:53;;;;;;;4.55;2.58;;;21.10;67.70;;;;;;10374828;28;20088;-47
2021/08/24 22:54:53;;;;;;;3.95;2.70;;;21.10;67.60;;;;;;10376236;28;20038;-48
2021/08/24 22:59:54;;;;;;;3.97;2.30;;;21.10;67.60;;;;;;10375703;28;20382;-48
2021/08/24 23:04:55;;;;;;;3.70;2.70;;;21.10;67.60;;;;;;10375811;28;20433;-48
2021/08/24 23:09:56;;;;;;;3.95;2.50;;;21.10;67.40;;;;;;10361429;28;20124;-48
2021/08/24 23:14:58;;;;;;;3.42;2.13;;;21.10;67.40;;;;;;10360848;28;20036;-48
2021/08/24 23:19:59;;;;;;;3.20;2.55;;;21.10;67.50;;;;;;10349304;28;20037;-51
2021/08/24 23:25:00;;;;;;;3.78;2.78;;;21.00;67.30;;;;;;10332987;28;20030;-50
2021/08/24 23:30:01;;;;;;;4.35;2.70;;;21.00;67.30;;;;;;10334152;28;20451;-48
2021/08/24 23:35:01;;;;;;;4.32;2.58;;;21.00;67.30;;;;;;10360328;28;20034;-47
2021/08/24 23:40:04;;;;;;;4.30;2.50;;;21.00;67.20;;;;;;10373193;28;20024;-50
2021/08/24 23:45:06;;;;;;;4.55;2.88;;;21.00;67.10;;;;;;10373582;28;20049;-51
2021/08/24 23:50:08;;;;;;;3.63;2.47;;;21.00;67.00;;;;;;10373942;28;20084;-51
2021/08/24 23:55:09;;;;;;;4.20;2.70;;;21.00;67.20;;;;;;10373791;28;20390;-51
